createdAt,value
2019-02-27T00:00:32.316Z,99.90
2019-02-27T00:03:05.754Z,99.90
2019-02-27T00:05:38.848Z,99.90
2019-02-27T00:08:10.079Z,99.90
2019-02-27T00:10:41.743Z,99.90
2019-02-27T00:13:13.065Z,99.90
2019-02-27T00:15:44.331Z,99.90
2019-02-27T00:18:15.885Z,99.90
2019-02-27T00:20:47.158Z,99.90
2019-02-27T00:23:18.364Z,99.90
2019-02-27T00:25:49.933Z,99.90
2019-02-27T00:28:23.343Z,99.90
2019-02-27T00:30:55.543Z,99.90
2019-02-27T00:33:28.620Z,99.90
2019-02-27T00:35:59.704Z,99.90
2019-02-27T00:38:30.899Z,99.90
2019-02-27T00:41:02.109Z,99.90
2019-02-27T00:43:33.342Z,99.90
2019-02-27T00:46:04.625Z,99.90
2019-02-27T00:48:35.863Z,99.90
2019-02-27T00:51:09.639Z,99.90
2019-02-27T00:53:39.958Z,99.90
2019-02-27T00:56:12.162Z,99.90
2019-02-27T00:58:44.421Z,99.90
2019-02-27T01:01:15.704Z,99.90
2019-02-27T01:03:47.192Z,99.90
2019-02-27T01:06:18.673Z,99.90
2019-02-27T01:08:49.876Z,99.90
2019-02-27T01:11:21.256Z,99.90
2019-02-27T01:13:52.416Z,99.90
2019-02-27T01:16:23.911Z,99.90
2019-02-27T01:18:54.930Z,99.90
2019-02-27T01:21:26.055Z,99.90
2019-02-27T01:23:57.253Z,99.90
2019-02-27T01:26:30.823Z,99.90
2019-02-27T01:29:01.607Z,99.90
2019-02-27T01:31:33.164Z,99.90
2019-02-27T01:34:04.494Z,99.90
2019-02-27T01:36:35.774Z,99.90
2019-02-27T01:39:08.965Z,99.90
2019-02-27T01:41:41.710Z,99.90
2019-02-27T01:44:13.695Z,99.90
2019-02-27T01:46:45.496Z,99.90
2019-02-27T01:49:16.950Z,99.90
2019-02-27T01:51:48.188Z,99.90
2019-02-27T01:54:19.278Z,99.90
2019-02-27T01:56:50.495Z,99.90
2019-02-27T01:59:22.188Z,99.90
2019-02-27T02:01:53.313Z,99.90
2019-02-27T02:04:24.550Z,99.90
2019-02-27T02:06:55.740Z,99.90
2019-02-27T02:09:37.779Z,99.90
2019-02-27T02:12:19.541Z,99.90
2019-02-27T02:15:16.779Z,99.90
2019-02-27T02:18:51.049Z,99.90
2019-02-27T02:22:25.726Z,99.90
2019-02-27T02:25:38.651Z,99.90
2019-02-27T02:29:34.168Z,99.90
2019-02-27T02:32:30.637Z,99.90
2019-02-27T02:35:23.217Z,99.90
2019-02-27T02:38:52.969Z,99.90
2019-02-27T02:42:32.540Z,99.90
2019-02-27T02:45:33.072Z,99.90
2019-02-27T02:48:51.799Z,99.90
2019-02-27T02:52:22.278Z,99.90
2019-02-27T02:55:21.548Z,99.90
2019-02-27T02:58:36.334Z,99.90
2019-02-27T03:01:25.169Z,99.90
2019-02-27T03:04:47.885Z,99.90
2019-02-27T03:08:04.182Z,99.90
2019-02-27T03:11:34.114Z,99.90
2019-02-27T03:14:30.203Z,99.90
2019-02-27T03:17:56.534Z,99.90
2019-02-27T03:20:52.410Z,99.90
2019-02-27T03:24:27.911Z,99.90
2019-02-27T03:27:49.120Z,99.90
2019-02-27T03:31:03.303Z,99.90
2019-02-27T03:34:48.155Z,99.90
2019-02-27T03:38:07.212Z,99.90
2019-02-27T03:41:43.045Z,99.90
2019-02-27T03:45:09.717Z,99.90
2019-02-27T03:48:14.321Z,99.90
2019-02-27T03:51:38.559Z,99.90
2019-02-27T03:55:01.026Z,99.90
2019-02-27T03:58:05.452Z,99.90
2019-02-27T04:01:08.224Z,99.90
2019-02-27T04:04:35.321Z,99.90
2019-02-27T04:08:43.602Z,99.90
2019-02-27T04:11:10.806Z,99.90
2019-02-27T04:13:41.840Z,99.90
2019-02-27T04:16:13.231Z,99.90
2019-02-27T04:18:44.396Z,99.90
2019-02-27T04:21:15.692Z,99.90
2019-02-27T04:23:49.011Z,99.90
2019-02-27T04:26:19.802Z,99.90
2019-02-27T04:28:50.881Z,99.90
2019-02-27T04:31:22.168Z,99.90
2019-02-27T04:33:59.743Z,99.90
2019-02-27T04:36:27.190Z,99.90
2019-02-27T04:39:00.063Z,99.90
2019-02-27T04:41:31.586Z,99.90
2019-02-27T04:44:06.070Z,99.90
2019-02-27T04:46:36.568Z,99.90
2019-02-27T04:49:07.836Z,99.90
2019-02-27T04:51:38.960Z,99.90
2019-02-27T04:54:10.049Z,99.90
2019-02-27T04:56:41.319Z,99.90
2019-02-27T04:59:12.490Z,99.90
2019-02-27T05:01:43.974Z,99.90
2019-02-27T05:04:15.341Z,99.90
2019-02-27T05:06:47.800Z,99.90
2019-02-27T05:09:19.984Z,99.90
2019-02-27T05:11:51.153Z,99.90
2019-02-27T05:14:22.241Z,99.90
2019-02-27T05:16:53.441Z,99.90
2019-02-27T05:19:24.849Z,99.90
2019-02-27T05:21:56.120Z,99.90
2019-02-27T05:24:27.647Z,99.90
2019-02-27T05:27:00.845Z,99.90
2019-02-27T05:29:31.573Z,99.90
2019-02-27T05:32:02.797Z,99.90
2019-02-27T05:34:33.908Z,99.90
2019-02-27T05:37:05.956Z,99.90
2019-02-27T05:39:37.599Z,99.90
2019-02-27T05:42:08.795Z,99.90
2019-02-27T05:44:39.836Z,99.90
2019-02-27T05:47:11.693Z,99.90
2019-02-27T05:49:43.326Z,99.90
2019-02-27T05:52:15.102Z,99.90
2019-02-27T05:54:46.323Z,99.90
2019-02-27T05:57:18.006Z,99.90
2019-02-27T05:59:49.052Z,99.90
2019-02-27T06:02:20.241Z,99.90
2019-02-27T06:04:51.273Z,99.90
2019-02-27T06:07:22.372Z,99.90
2019-02-27T06:09:53.526Z,99.90
2019-02-27T06:12:24.584Z,99.90
2019-02-27T06:14:55.777Z,99.90
2019-02-27T06:17:27.300Z,99.90
2019-02-27T06:19:58.462Z,99.90
2019-02-27T06:22:30.380Z,99.90
2019-02-27T06:25:02.241Z,99.90
2019-02-27T06:27:33.580Z,99.90
2019-02-27T06:30:05.752Z,99.90
2019-02-27T06:32:36.881Z,99.90
2019-02-27T06:35:08.882Z,99.90
2019-02-27T06:37:40.157Z,99.90
2019-02-27T06:40:13.450Z,99.90
2019-02-27T06:42:44.729Z,99.90
2019-02-27T06:45:16.877Z,99.90
2019-02-27T06:47:48.150Z,99.90
2019-02-27T06:50:19.449Z,99.90
2019-02-27T06:52:50.888Z,99.90
2019-02-27T06:55:22.072Z,99.90
2019-02-27T06:57:53.303Z,99.90
2019-02-27T07:00:24.467Z,99.90
2019-02-27T07:02:56.221Z,99.90
2019-02-27T07:05:27.446Z,99.90
2019-02-27T07:07:58.538Z,99.90
2019-02-27T07:10:29.729Z,99.90
2019-02-27T07:13:00.799Z,99.90
2019-02-27T07:15:32.261Z,99.90
2019-02-27T07:18:06.132Z,99.90
2019-02-27T07:20:37.012Z,99.90
2019-02-27T07:23:08.264Z,99.90
2019-02-27T07:25:42.031Z,99.90
2019-02-27T07:28:12.243Z,99.90
2019-02-27T07:30:43.328Z,99.90
2019-02-27T07:33:14.384Z,99.90
2019-02-27T07:35:45.668Z,99.90
2019-02-27T07:38:21.433Z,99.90
2019-02-27T07:40:51.228Z,99.90
2019-02-27T07:43:23.424Z,99.90
2019-02-27T07:45:54.738Z,99.90
2019-02-27T07:48:25.830Z,99.90
2019-02-27T07:50:57.508Z,99.90
2019-02-27T07:53:28.717Z,99.90
2019-02-27T07:56:00.065Z,99.90
2019-02-27T07:58:33.679Z,99.90
2019-02-27T08:01:04.716Z,99.90
2019-02-27T08:03:36.034Z,99.90
2019-02-27T08:06:07.165Z,99.90
2019-02-27T08:08:38.315Z,99.90
2019-02-27T08:11:13.423Z,99.90
2019-02-27T08:13:42.428Z,99.90
2019-02-27T08:16:13.611Z,99.90
2019-02-27T08:18:44.852Z,99.90
2019-02-27T08:21:15.882Z,99.90
2019-02-27T08:23:47.108Z,99.90
2019-02-27T08:26:18.548Z,99.90
2019-02-27T08:28:49.904Z,99.90
2019-02-27T08:31:22.215Z,99.90
2019-02-27T08:33:53.299Z,99.90
2019-02-27T08:36:24.609Z,99.90
2019-02-27T08:38:55.739Z,99.90
2019-02-27T08:41:29.156Z,99.90
2019-02-27T08:43:59.779Z,99.90
2019-02-27T08:46:31.015Z,99.90
2019-02-27T08:49:02.765Z,99.90
2019-02-27T08:51:33.799Z,99.90
2019-02-27T08:54:04.956Z,99.90
2019-02-27T08:56:36.143Z,99.90
2019-02-27T08:59:07.386Z,99.90
2019-02-27T09:01:38.658Z,99.90
2019-02-27T09:04:12.238Z,99.90
2019-02-27T09:06:42.570Z,99.90
2019-02-27T09:09:15.053Z,99.90
2019-02-27T09:11:46.718Z,99.90
2019-02-27T09:14:17.911Z,99.90
2019-02-27T09:16:49.108Z,99.90
2019-02-27T09:19:20.841Z,99.90
2019-02-27T09:21:52.126Z,99.90
2019-02-27T09:24:23.782Z,99.90
2019-02-27T09:26:54.896Z,99.90
2019-02-27T09:29:26.183Z,99.90
2019-02-27T09:31:57.328Z,99.90
2019-02-27T09:34:28.513Z,99.90
2019-02-27T09:37:00.756Z,99.90
2019-02-27T09:39:32.298Z,99.90
2019-02-27T09:42:03.556Z,99.90
2019-02-27T09:44:36.627Z,99.90
2019-02-27T09:47:07.940Z,99.90
2019-02-27T09:49:40.786Z,99.90
2019-02-27T09:52:13.315Z,99.90
2019-02-27T09:54:46.919Z,99.90
2019-02-27T09:57:17.599Z,99.90
2019-02-27T09:59:51.153Z,99.90
2019-02-27T10:02:21.706Z,99.90
2019-02-27T10:04:52.822Z,99.90
2019-02-27T10:07:24.782Z,99.90
2019-02-27T10:09:55.939Z,99.90
2019-02-27T10:12:27.839Z,99.90
2019-02-27T10:14:59.057Z,99.90
2019-02-27T10:17:30.253Z,99.90
2019-02-27T10:20:02.424Z,99.90
2019-02-27T10:22:34.511Z,99.90
2019-02-27T10:25:08.627Z,99.90
2019-02-27T10:27:38.870Z,99.90
2019-02-27T10:30:11.736Z,99.90
2019-02-27T10:32:43.228Z,99.90
2019-02-27T10:35:16.471Z,99.90
2019-02-27T10:37:50.461Z,99.90
2019-02-27T10:40:20.864Z,99.90
2019-02-27T10:42:52.135Z,99.90
2019-02-27T10:45:23.336Z,99.90
2019-02-27T10:47:54.579Z,99.90
2019-02-27T10:50:25.696Z,99.90
2019-02-27T10:52:57.229Z,99.90
2019-02-27T10:55:28.424Z,99.90
2019-02-27T10:58:00.028Z,99.90
2019-02-27T11:00:31.889Z,99.90
2019-02-27T11:03:03.703Z,99.90
2019-02-27T11:05:35.419Z,99.90
2019-02-27T11:08:07.187Z,99.90
2019-02-27T11:10:38.303Z,99.90
2019-02-27T11:13:09.471Z,99.90
2019-02-27T11:15:41.543Z,99.90
2019-02-27T11:18:13.815Z,99.90
2019-02-27T11:20:45.099Z,99.90
2019-02-27T11:23:16.576Z,99.90
2019-02-27T11:25:47.829Z,99.90
2019-02-27T11:28:19.316Z,99.90
2019-02-27T11:30:51.138Z,99.90
2019-02-27T11:33:25.888Z,99.90
2019-02-27T11:35:55.417Z,99.90
2019-02-27T11:38:26.920Z,99.90
2019-02-27T11:40:58.051Z,99.90
2019-02-27T11:43:29.820Z,99.90
2019-02-27T11:46:01.110Z,99.90
2019-02-27T11:48:32.286Z,99.90
2019-02-27T11:51:03.640Z,99.70
2019-02-27T11:53:35.859Z,99.70
2019-02-27T11:56:08.340Z,98.60
2019-02-27T11:58:39.568Z,97.70
2019-02-27T12:01:12.212Z,98.50
2019-02-27T12:03:46.031Z,98.30
2019-02-27T12:06:16.402Z,97.50
2019-02-27T12:08:47.411Z,99.40
2019-02-27T12:11:18.659Z,96.90
2019-02-27T12:13:50.185Z,95.50
2019-02-27T12:16:21.250Z,95.30
2019-02-27T12:18:52.356Z,97.50
2019-02-27T12:21:25.421Z,95.40
2019-02-27T12:23:56.646Z,92.30
2019-02-27T12:26:27.760Z,91.40
2019-02-27T12:28:58.920Z,90.30
2019-02-27T12:31:30.109Z,88.80
2019-02-27T12:34:03.303Z,89.10
2019-02-27T12:36:34.072Z,90.20
2019-02-27T12:39:06.466Z,88.50
2019-02-27T12:41:38.336Z,87.40
2019-02-27T12:44:09.613Z,85.60
2019-02-27T12:46:40.845Z,84.00
2019-02-27T12:49:11.944Z,85.30
2019-02-27T12:51:43.079Z,84.20
2019-02-27T12:54:14.121Z,89.00
2019-02-27T12:56:45.245Z,90.20
2019-02-27T12:59:16.463Z,89.20
2019-02-27T13:01:50.697Z,89.60
2019-02-27T13:04:20.962Z,80.60
2019-02-27T13:06:52.441Z,78.60
2019-02-27T13:09:24.542Z,75.60
2019-02-27T13:11:56.333Z,74.20
2019-02-27T13:14:27.484Z,71.20
2019-02-27T13:16:58.773Z,70.20
2019-02-27T13:19:30.025Z,74.50
2019-02-27T13:22:01.795Z,77.30
2019-02-27T13:24:33.249Z,68.30
2019-02-27T13:27:08.981Z,65.40
2019-02-27T13:29:37.896Z,64.40
2019-02-27T13:32:09.051Z,62.70
2019-02-27T13:34:40.209Z,61.30
2019-02-27T13:37:11.290Z,60.10
2019-02-27T13:39:43.375Z,59.70
2019-02-27T13:42:18.418Z,63.50
2019-02-27T13:44:47.580Z,61.60
2019-02-27T13:47:18.732Z,61.20
2019-02-27T13:49:49.932Z,63.60
2019-02-27T13:52:21.048Z,63.80
2019-02-27T13:54:52.088Z,63.40
2019-02-27T13:57:25.726Z,65.00
2019-02-27T13:59:55.983Z,65.80
2019-02-27T14:02:27.176Z,62.50
2019-02-27T14:05:00.643Z,63.80
2019-02-27T14:07:31.263Z,63.50
2019-02-27T14:10:02.403Z,63.40
2019-02-27T14:12:36.449Z,62.60
2019-02-27T14:15:09.355Z,59.50
2019-02-27T14:17:42.267Z,61.50
2019-02-27T14:20:17.168Z,63.80
2019-02-27T14:22:48.407Z,64.30
2019-02-27T14:25:22.271Z,61.80
2019-02-27T14:27:53.480Z,59.70
2019-02-27T14:30:28.404Z,58.90
2019-02-27T14:32:59.639Z,59.30
2019-02-27T14:35:35.240Z,57.20
2019-02-27T14:38:04.151Z,54.90
2019-02-27T14:40:39.500Z,53.10
2019-02-27T14:43:08.685Z,52.00
2019-02-27T14:45:41.045Z,52.60
2019-02-27T14:48:12.446Z,53.80
2019-02-27T14:50:43.730Z,52.60
2019-02-27T14:53:16.526Z,54.10
2019-02-27T14:55:47.884Z,53.60
2019-02-27T14:58:19.164Z,54.30
2019-02-27T15:00:51.025Z,53.20
2019-02-27T15:03:22.141Z,52.80
2019-02-27T15:05:53.487Z,53.50
2019-02-27T15:08:26.043Z,52.60
2019-02-27T15:10:57.386Z,52.30
2019-02-27T15:13:29.013Z,53.30
2019-02-27T15:16:00.164Z,54.00
2019-02-27T15:18:31.409Z,53.90
2019-02-27T15:21:02.785Z,52.70
2019-02-27T15:23:34.011Z,53.00
2019-02-27T15:26:05.586Z,51.90
2019-02-27T15:28:38.259Z,53.60
2019-02-27T15:31:09.484Z,53.90
2019-02-27T15:33:40.997Z,53.90
2019-02-27T15:36:13.123Z,52.40
2019-02-27T15:38:46.121Z,52.30
2019-02-27T15:41:17.459Z,52.30
2019-02-27T15:43:57.395Z,52.50
2019-02-27T15:46:22.558Z,52.10
2019-02-27T15:48:54.025Z,51.70
2019-02-27T15:51:25.312Z,52.10
2019-02-27T15:53:56.491Z,51.90
2019-02-27T15:56:28.004Z,52.30
2019-02-27T15:58:59.329Z,52.30
2019-02-27T16:01:33.089Z,53.10
2019-02-27T16:04:04.543Z,52.60
2019-02-27T16:06:37.088Z,53.30
2019-02-27T16:09:10.249Z,53.40
2019-02-27T16:11:43.193Z,54.10
2019-02-27T16:14:14.299Z,54.30
2019-02-27T16:16:47.538Z,54.60
2019-02-27T16:19:18.224Z,55.00
2019-02-27T16:21:49.878Z,55.30
2019-02-27T16:24:21.036Z,55.20
2019-02-27T16:26:52.334Z,55.70
2019-02-27T16:29:23.704Z,56.10
2019-02-27T16:31:54.946Z,56.90
2019-02-27T16:34:32.655Z,57.20
2019-02-27T16:36:59.249Z,57.70
2019-02-27T16:39:30.900Z,58.20
2019-02-27T16:42:05.145Z,58.70
2019-02-27T16:44:35.804Z,59.10
2019-02-27T16:47:06.997Z,59.70
2019-02-27T16:49:38.500Z,60.70
2019-02-27T16:52:09.806Z,62.30
2019-02-27T16:54:40.901Z,63.00
2019-02-27T16:57:12.027Z,65.80
2019-02-27T16:59:45.291Z,68.20
2019-02-27T17:02:17.393Z,69.40
2019-02-27T17:04:48.491Z,70.00
2019-02-27T17:07:19.615Z,71.20
2019-02-27T17:09:50.798Z,72.60
2019-02-27T17:12:22.256Z,75.00
2019-02-27T17:14:55.454Z,77.90
2019-02-27T17:17:26.665Z,79.50
2019-02-27T17:19:59.325Z,81.00
2019-02-27T17:22:33.335Z,85.00
2019-02-27T17:25:04.129Z,86.80
2019-02-27T17:27:35.501Z,88.60
2019-02-27T17:30:15.421Z,90.10
2019-02-27T17:32:47.271Z,90.80
2019-02-27T17:35:20.464Z,91.20
2019-02-27T17:37:53.960Z,91.90
2019-02-27T17:40:25.117Z,92.10
2019-02-27T17:42:56.376Z,92.40
2019-02-27T17:45:28.325Z,93.10
2019-02-27T17:47:59.551Z,93.30
2019-02-27T17:50:32.309Z,93.70
2019-02-27T17:53:03.986Z,93.60
2019-02-27T17:55:35.234Z,94.10
2019-02-27T17:58:06.810Z,95.10
2019-02-27T18:00:40.425Z,95.90
2019-02-27T18:03:12.044Z,96.10
2019-02-27T18:05:43.701Z,96.70
2019-02-27T18:08:16.283Z,96.80
2019-02-27T18:10:48.340Z,97.60
2019-02-27T18:13:20.132Z,98.10
2019-02-27T18:15:53.255Z,98.30
2019-02-27T18:18:24.466Z,98.70
2019-02-27T18:20:56.831Z,99.00
2019-02-27T18:23:29.577Z,99.00
2019-02-27T18:26:00.769Z,99.40
2019-02-27T18:28:33.714Z,99.00
2019-02-27T18:31:05.434Z,98.90
2019-02-27T18:33:36.782Z,99.90
2019-02-27T18:36:07.965Z,99.90
2019-02-27T18:38:39.152Z,99.90
2019-02-27T18:41:10.439Z,99.90
2019-02-27T18:43:42.610Z,99.90
2019-02-27T18:46:13.887Z,99.90
2019-02-27T18:48:45.181Z,99.90
2019-02-27T18:51:16.778Z,99.90
2019-02-27T18:53:48.578Z,99.90
2019-02-27T18:56:19.862Z,99.90
2019-02-27T18:58:51.965Z,99.90
2019-02-27T19:01:24.405Z,99.90
2019-02-27T19:04:00.253Z,99.90
2019-02-27T19:06:28.979Z,99.90
2019-02-27T19:09:00.628Z,99.90
2019-02-27T19:11:33.161Z,99.90
2019-02-27T19:14:05.809Z,99.90
2019-02-27T19:16:37.950Z,99.90
2019-02-27T19:19:09.594Z,99.90
2019-02-27T19:21:40.854Z,99.90
2019-02-27T19:24:12.115Z,99.90
2019-02-27T19:26:44.371Z,99.90
2019-02-27T19:29:16.708Z,99.90
2019-02-27T19:31:48.376Z,99.90
2019-02-27T19:34:21.001Z,99.90
2019-02-27T19:36:52.615Z,99.90
2019-02-27T19:39:24.172Z,99.90
2019-02-27T19:41:55.296Z,99.90
2019-02-27T19:44:29.231Z,99.90
2019-02-27T19:46:59.434Z,99.90
2019-02-27T19:49:30.761Z,99.90
2019-02-27T19:52:03.288Z,99.90
2019-02-27T19:54:34.534Z,99.90
2019-02-27T19:57:08.444Z,99.90
2019-02-27T19:59:38.865Z,99.90
2019-02-27T20:02:10.340Z,99.90
2019-02-27T20:04:44.663Z,99.90
2019-02-27T20:07:15.481Z,99.90
2019-02-27T20:09:46.716Z,99.90
2019-02-27T20:12:18.260Z,99.90
2019-02-27T20:14:49.569Z,99.90
2019-02-27T20:17:20.765Z,99.90
2019-02-27T20:19:51.987Z,99.90
2019-02-27T20:22:23.317Z,99.90
2019-02-27T20:24:54.475Z,99.90
2019-02-27T20:27:26.887Z,99.90
2019-02-27T20:29:59.023Z,99.90
2019-02-27T20:32:30.382Z,99.90
2019-02-27T20:35:01.655Z,99.90
2019-02-27T20:37:34.014Z,99.90
2019-02-27T20:40:05.375Z,99.90
2019-02-27T20:42:37.214Z,99.90
2019-02-27T20:45:12.073Z,99.90
2019-02-27T20:47:44.007Z,99.90
2019-02-27T20:50:34.606Z,99.90
2019-02-27T20:52:59.689Z,99.90
2019-02-27T20:55:31.839Z,99.90
2019-02-27T20:58:03.360Z,99.90
2019-02-27T21:00:36.486Z,99.90
2019-02-27T21:03:07.666Z,99.90
2019-02-27T21:05:41.101Z,99.90
2019-02-27T21:08:11.725Z,99.90
2019-02-27T21:10:42.875Z,99.90
2019-02-27T21:13:16.068Z,99.90
2019-02-27T21:15:47.309Z,99.90
2019-02-27T21:18:18.867Z,99.90
2019-02-27T21:20:50.963Z,99.90
2019-02-27T21:23:23.596Z,99.90
2019-02-27T21:25:55.018Z,99.90
2019-02-27T21:28:26.298Z,99.90
2019-02-27T21:30:57.624Z,99.90
2019-02-27T21:33:28.901Z,99.90
2019-02-27T21:36:03.460Z,99.90
2019-02-27T21:38:33.376Z,99.90
2019-02-27T21:41:04.534Z,99.90
2019-02-27T21:43:35.718Z,99.90
2019-02-27T21:46:08.363Z,99.90
2019-02-27T21:48:41.202Z,99.90
2019-02-27T21:51:13.793Z,99.90
2019-02-27T21:53:46.641Z,99.90
2019-02-27T21:56:18.222Z,99.90
2019-02-27T21:58:50.096Z,99.90
2019-02-27T22:01:22.064Z,99.90
2019-02-27T22:03:53.887Z,99.90
2019-02-27T22:06:27.452Z,99.90
2019-02-27T22:08:58.272Z,99.90
2019-02-27T22:11:29.464Z,99.90
2019-02-27T22:14:00.628Z,99.90
2019-02-27T22:16:31.855Z,99.90
2019-02-27T22:19:04.009Z,99.90
2019-02-27T22:21:35.168Z,99.90
2019-02-27T22:24:06.375Z,99.90
2019-02-27T22:26:38.426Z,99.90
2019-02-27T22:29:09.994Z,99.90
2019-02-27T22:31:41.365Z,99.90
2019-02-27T22:34:12.585Z,99.90
2019-02-27T22:36:44.850Z,99.90
2019-02-27T22:39:16.186Z,99.90
2019-02-27T22:41:47.364Z,99.90
2019-02-27T22:44:18.432Z,99.90
2019-02-27T22:46:49.682Z,99.90
2019-02-27T22:49:20.804Z,99.90
2019-02-27T22:51:51.909Z,99.90
2019-02-27T22:54:23.111Z,99.90
2019-02-27T22:56:54.283Z,99.90
2019-02-27T22:59:25.538Z,99.90
2019-02-27T23:01:57.471Z,99.90
2019-02-27T23:04:29.979Z,99.90
2019-02-27T23:07:02.019Z,99.90
2019-02-27T23:09:33.497Z,99.90
2019-02-27T23:12:04.913Z,99.90
2019-02-27T23:14:36.034Z,99.90
2019-02-27T23:17:07.426Z,99.90
2019-02-27T23:19:39.010Z,99.90
2019-02-27T23:22:10.763Z,99.90
2019-02-27T23:24:43.912Z,99.90
2019-02-27T23:27:15.975Z,99.90
2019-02-27T23:29:47.119Z,99.90
2019-02-27T23:32:18.219Z,99.90
2019-02-27T23:34:49.558Z,99.90
2019-02-27T23:37:20.645Z,99.90
2019-02-27T23:39:51.759Z,99.90
2019-02-27T23:42:23.021Z,99.90
2019-02-27T23:44:54.242Z,99.90
2019-02-27T23:47:28.757Z,99.90
2019-02-27T23:49:59.238Z,99.90
2019-02-27T23:52:30.494Z,99.90
2019-02-27T23:55:01.767Z,99.90
2019-02-27T23:57:33.630Z,99.90
